createdAt,value
2019-04-25T00:00:24.700Z,14.13
2019-04-25T00:01:03.336Z,13.05
2019-04-25T00:01:44.657Z,13.98
2019-04-25T00:02:34.478Z,12.93
2019-04-25T00:03:12.211Z,13.05
2019-04-25T00:03:48.422Z,13.18
2019-04-25T00:04:24.533Z,14.35
2019-04-25T00:05:01.335Z,14.50
2019-04-25T00:05:38.765Z,14.30
2019-04-25T00:06:15.924Z,14.15
2019-04-25T00:06:52.238Z,14.70
2019-04-25T00:07:28.639Z,13.53
2019-04-25T00:08:05.196Z,13.98
2019-04-25T00:08:43.074Z,13.85
2019-04-25T00:09:21.914Z,14.58
2019-04-25T00:09:58.087Z,14.50
2019-04-25T00:10:34.125Z,14.03
2019-04-25T00:11:11.674Z,14.65
2019-04-25T00:11:49.004Z,14.33
2019-04-25T00:12:25.127Z,13.50
2019-04-25T00:13:03.587Z,13.40
2019-04-25T00:13:39.737Z,13.75
2019-04-25T00:14:16.093Z,14.63
2019-04-25T00:14:52.210Z,14.43
2019-04-25T00:15:29.474Z,15.25
2019-04-25T00:16:06.464Z,13.58
2019-04-25T00:16:45.132Z,14.13
2019-04-25T00:17:21.502Z,13.58
2019-04-25T00:17:57.548Z,13.88
2019-04-25T00:18:33.665Z,13.78
2019-04-25T00:19:09.805Z,14.73
2019-04-25T00:19:46.438Z,14.85
2019-04-25T00:20:24.777Z,14.35
2019-04-25T00:21:02.447Z,14.10
2019-04-25T00:21:40.911Z,14.45
2019-04-25T00:22:22.332Z,14.03
2019-04-25T00:23:01.916Z,14.33
2019-04-25T00:23:39.369Z,13.60
2019-04-25T00:24:23.818Z,14.58
2019-04-25T00:25:15.099Z,14.03
2019-04-25T00:25:52.807Z,13.48
2019-04-25T00:26:33.489Z,14.20
2019-04-25T00:27:46.019Z,14.40
2019-04-25T00:28:22.320Z,14.53
2019-04-25T00:28:58.422Z,14.45
2019-04-25T00:29:34.679Z,14.38
2019-04-25T00:30:11.329Z,14.20
2019-04-25T00:30:48.067Z,14.38
2019-04-25T00:31:26.040Z,14.00
2019-04-25T00:32:02.235Z,14.63
2019-04-25T00:32:38.345Z,14.28
2019-04-25T00:33:14.472Z,14.40
2019-04-25T00:33:52.493Z,14.90
2019-04-25T00:34:28.405Z,14.30
2019-04-25T00:35:05.798Z,14.80
2019-04-25T00:35:43.525Z,14.73
2019-04-25T00:36:19.751Z,14.18
2019-04-25T00:36:55.831Z,14.73
2019-04-25T00:37:32.309Z,14.75
2019-04-25T00:38:08.465Z,14.73
2019-04-25T00:38:46.568Z,14.30
2019-04-25T00:39:22.519Z,14.65
2019-04-25T00:39:58.597Z,14.30
2019-04-25T00:40:35.026Z,15.38
2019-04-25T00:41:11.607Z,15.23
2019-04-25T00:41:47.793Z,14.60
2019-04-25T00:42:23.888Z,15.23
2019-04-25T00:43:01.529Z,15.13
2019-04-25T00:43:37.722Z,14.87
2019-04-25T00:44:13.825Z,15.18
2019-04-25T00:44:51.278Z,14.53
2019-04-25T00:45:27.613Z,15.28
2019-04-25T00:46:03.758Z,14.47
2019-04-25T00:46:39.803Z,14.93
2019-04-25T00:47:15.925Z,15.13
2019-04-25T00:47:52.897Z,14.55
2019-04-25T00:48:29.038Z,15.58
2019-04-25T00:49:05.061Z,14.55
2019-04-25T00:49:43.839Z,15.32
2019-04-25T00:50:19.710Z,15.13
2019-04-25T00:50:55.757Z,14.58
2019-04-25T00:51:31.874Z,15.25
2019-04-25T00:52:07.925Z,16.30
2019-04-25T00:52:44.866Z,15.23
2019-04-25T00:53:21.255Z,14.65
2019-04-25T00:53:57.315Z,14.90
2019-04-25T00:54:33.360Z,14.55
2019-04-25T00:55:09.668Z,14.53
2019-04-25T00:55:46.440Z,14.98
2019-04-25T00:56:22.527Z,14.68
2019-04-25T00:56:58.663Z,15.28
2019-04-25T00:57:35.241Z,14.70
2019-04-25T00:58:12.932Z,14.28
2019-04-25T00:59:02.672Z,15.65
2019-04-25T00:59:41.848Z,15.43
2019-04-25T01:00:35.721Z,15.58
2019-04-25T01:01:25.291Z,14.90
2019-04-25T01:02:11.878Z,15.40
2019-04-25T01:02:49.532Z,14.90
2019-04-25T01:03:33.002Z,15.63
2019-04-25T01:04:09.055Z,15.32
2019-04-25T01:04:45.245Z,16.95
2019-04-25T01:05:21.683Z,15.70
2019-04-25T01:05:57.720Z,15.68
2019-04-25T01:06:33.755Z,15.72
2019-04-25T01:07:09.795Z,15.98
2019-04-25T01:07:45.866Z,15.40
2019-04-25T01:08:22.050Z,15.83
2019-04-25T01:08:59.057Z,15.25
2019-04-25T01:09:35.262Z,16.67
2019-04-25T01:10:13.374Z,15.88
2019-04-25T01:10:50.524Z,14.95
2019-04-25T01:11:27.198Z,16.48
2019-04-25T01:12:04.113Z,15.63
2019-04-25T01:12:41.708Z,16.65
2019-04-25T01:13:17.823Z,15.65
2019-04-25T01:13:54.454Z,17.15
2019-04-25T01:14:31.933Z,16.40
2019-04-25T01:15:09.671Z,16.70
2019-04-25T01:15:46.403Z,16.07
2019-04-25T01:16:22.409Z,16.57
2019-04-25T01:16:58.524Z,16.00
2019-04-25T01:17:34.542Z,16.50
2019-04-25T01:18:12.209Z,15.88
2019-04-25T01:18:48.745Z,16.00
2019-04-25T01:19:24.868Z,16.10
2019-04-25T01:20:00.898Z,15.93
2019-04-25T01:20:37.016Z,15.32
2019-04-25T01:21:14.140Z,16.30
2019-04-25T01:21:51.290Z,16.30
2019-04-25T01:22:27.441Z,17.67
2019-04-25T01:23:03.811Z,15.65
2019-04-25T01:23:39.892Z,15.95
2019-04-25T01:24:15.980Z,15.63
2019-04-25T01:24:52.020Z,14.93
2019-04-25T01:25:38.545Z,16.40
2019-04-25T01:26:06.419Z,15.65
2019-04-25T01:26:43.856Z,16.00
2019-04-25T01:27:20.003Z,15.55
2019-04-25T01:27:56.027Z,16.30
2019-04-25T01:28:33.565Z,15.50
2019-04-25T01:29:10.482Z,15.95
2019-04-25T01:29:46.684Z,15.80
2019-04-25T01:30:24.361Z,15.15
2019-04-25T01:31:00.760Z,15.80
2019-04-25T01:31:36.779Z,15.53
2019-04-25T01:32:14.452Z,16.05
2019-04-25T01:32:50.546Z,16.55
2019-04-25T01:33:26.969Z,15.05
2019-04-25T01:34:04.660Z,15.58
2019-04-25T01:34:44.169Z,15.60
2019-04-25T01:35:27.605Z,15.63
2019-04-25T01:36:07.824Z,14.98
2019-04-25T01:36:51.235Z,16.02
2019-04-25T01:37:28.900Z,15.83
2019-04-25T01:38:09.496Z,15.35
2019-04-25T01:38:56.147Z,15.20
2019-04-25T01:39:48.946Z,15.15
2019-04-25T01:40:35.560Z,15.50
2019-04-25T01:41:31.308Z,15.15
2019-04-25T01:42:15.012Z,14.85
2019-04-25T01:43:04.732Z,15.43
2019-04-25T01:43:57.241Z,15.50
2019-04-25T01:45:10.475Z,15.53
2019-04-25T01:45:48.079Z,15.43
2019-04-25T01:46:25.589Z,15.38
2019-04-25T01:47:01.617Z,15.65
2019-04-25T01:47:37.643Z,15.83
2019-04-25T01:48:13.786Z,14.53
2019-04-25T01:48:50.170Z,15.30
2019-04-25T01:49:26.192Z,15.50
2019-04-25T01:50:03.788Z,15.75
2019-04-25T01:50:40.205Z,15.68
2019-04-25T01:51:16.272Z,15.78
2019-04-25T01:51:54.067Z,16.20
2019-04-25T01:52:30.052Z,15.58
2019-04-25T01:53:06.083Z,16.00
2019-04-25T01:53:42.126Z,15.45
2019-04-25T01:54:18.166Z,17.80
2019-04-25T01:54:55.663Z,16.32
2019-04-25T01:55:33.518Z,16.25
2019-04-25T01:56:09.618Z,16.40
2019-04-25T01:56:45.780Z,15.63
2019-04-25T01:57:21.813Z,16.52
2019-04-25T01:57:57.839Z,16.67
2019-04-25T01:58:33.940Z,16.70
2019-04-25T01:59:09.954Z,15.68
2019-04-25T01:59:46.157Z,16.20
2019-04-25T02:00:33.278Z,16.45
2019-04-25T02:01:09.547Z,16.70
2019-04-25T02:01:45.834Z,16.82
2019-04-25T02:02:23.665Z,16.60
2019-04-25T02:02:59.745Z,16.17
2019-04-25T02:03:35.864Z,17.20
2019-04-25T02:04:13.234Z,17.45
2019-04-25T02:04:49.355Z,17.00
2019-04-25T02:05:25.459Z,16.93
2019-04-25T02:06:01.745Z,16.02
2019-04-25T02:06:37.760Z,15.95
2019-04-25T02:07:13.871Z,17.07
2019-04-25T02:07:51.377Z,17.23
2019-04-25T02:08:27.556Z,17.55
2019-04-25T02:09:05.902Z,18.40
2019-04-25T02:09:43.660Z,17.17
2019-04-25T02:10:20.029Z,18.30
2019-04-25T02:10:58.141Z,18.17
2019-04-25T02:11:48.608Z,17.90
2019-04-25T02:12:27.325Z,19.15
2019-04-25T02:13:07.980Z,20.12
2019-04-25T02:14:19.638Z,19.32
2019-04-25T02:14:56.625Z,17.92
2019-04-25T02:15:33.498Z,18.40
2019-04-25T02:16:09.860Z,19.80
2019-04-25T02:16:45.966Z,21.45
2019-04-25T02:17:24.066Z,19.90
2019-04-25T02:18:00.456Z,18.80
2019-04-25T02:18:37.138Z,18.60
2019-04-25T02:19:14.499Z,18.65
2019-04-25T02:19:52.002Z,18.30
2019-04-25T02:20:28.173Z,18.85
2019-04-25T02:21:04.538Z,19.57
2019-04-25T02:21:40.584Z,18.95
2019-04-25T02:22:16.611Z,18.27
2019-04-25T02:22:54.472Z,18.57
2019-04-25T02:23:30.411Z,18.23
2019-04-25T02:24:06.515Z,18.32
2019-04-25T02:24:43.700Z,17.98
2019-04-25T02:25:19.753Z,17.55
2019-04-25T02:26:08.951Z,18.90
2019-04-25T02:26:34.077Z,18.57
2019-04-25T02:27:10.286Z,18.48
2019-04-25T02:27:46.308Z,18.42
2019-04-25T02:28:24.039Z,19.20
2019-04-25T02:29:00.576Z,19.55
2019-04-25T02:29:36.634Z,18.62
2019-04-25T02:30:15.527Z,19.15
2019-04-25T02:30:54.727Z,19.80
2019-04-25T02:31:29.473Z,18.95
2019-04-25T02:32:09.104Z,18.52
2019-04-25T02:32:44.278Z,18.40
2019-04-25T02:33:20.409Z,18.62
2019-04-25T02:33:58.804Z,19.02
2019-04-25T02:34:34.859Z,18.37
2019-04-25T02:35:11.261Z,18.90
2019-04-25T02:35:47.355Z,17.52
2019-04-25T02:36:24.683Z,19.45
2019-04-25T02:37:04.225Z,19.07
2019-04-25T02:37:38.570Z,17.87
2019-04-25T02:38:16.910Z,18.00
2019-04-25T02:38:54.159Z,18.45
2019-04-25T02:39:30.228Z,19.23
2019-04-25T02:40:08.450Z,21.75
2019-04-25T02:40:45.623Z,76.37
2019-04-25T02:41:21.803Z,21.25
2019-04-25T02:42:01.045Z,20.68
2019-04-25T02:42:36.905Z,18.02
2019-04-25T02:43:14.210Z,23.25
2019-04-25T02:43:50.482Z,26.75
2019-04-25T02:44:26.718Z,19.80
2019-04-25T02:45:08.226Z,19.65
2019-04-25T02:45:44.322Z,18.82
2019-04-25T02:46:37.416Z,19.77
2019-04-25T02:47:15.085Z,19.12
2019-04-25T02:48:08.721Z,18.48
2019-04-25T02:49:04.145Z,18.42
2019-04-25T02:49:41.577Z,19.32
2019-04-25T02:50:35.987Z,19.32
2019-04-25T02:51:16.584Z,19.40
2019-04-25T02:51:59.254Z,19.07
2019-04-25T02:52:38.997Z,19.73
2019-04-25T02:53:36.308Z,19.92
2019-04-25T02:54:09.481Z,19.52
2019-04-25T02:54:45.494Z,19.35
2019-04-25T02:55:31.125Z,19.55
2019-04-25T02:55:59.751Z,19.35
2019-04-25T02:56:38.871Z,19.27
2019-04-25T02:57:14.612Z,18.15
2019-04-25T02:57:50.794Z,18.25
2019-04-25T02:58:26.968Z,18.65
2019-04-25T02:59:06.501Z,19.75
2019-04-25T02:59:40.820Z,18.48
2019-04-25T03:00:20.140Z,18.48
2019-04-25T03:01:08.002Z,18.90
2019-04-25T03:01:36.273Z,17.62
2019-04-25T03:02:12.332Z,17.37
2019-04-25T03:02:48.363Z,17.55
2019-04-25T03:03:24.642Z,18.20
2019-04-25T03:04:00.992Z,17.48
2019-04-25T03:04:37.016Z,16.93
2019-04-25T03:05:14.295Z,18.32
2019-04-25T03:05:50.580Z,16.57
2019-04-25T03:06:26.630Z,16.62
2019-04-25T03:07:07.408Z,18.05
2019-04-25T03:07:40.592Z,18.20
2019-04-25T03:08:16.710Z,17.87
2019-04-25T03:08:54.277Z,17.52
2019-04-25T03:09:30.546Z,17.77
2019-04-25T03:10:09.811Z,17.67
2019-04-25T03:10:46.091Z,17.25
2019-04-25T03:11:24.306Z,17.35
2019-04-25T03:11:59.989Z,18.62
2019-04-25T03:12:36.845Z,16.82
2019-04-25T03:13:14.854Z,16.90
2019-04-25T03:13:50.849Z,18.07
2019-04-25T03:14:26.895Z,16.87
2019-04-25T03:15:06.354Z,17.95
2019-04-25T03:15:40.805Z,17.77
2019-04-25T03:16:16.817Z,17.62
2019-04-25T03:16:54.317Z,18.17
2019-04-25T03:17:30.572Z,16.95
2019-04-25T03:18:11.166Z,17.62
2019-04-25T03:18:47.155Z,17.37
2019-04-25T03:19:34.189Z,17.20
2019-04-25T03:20:14.848Z,16.77
2019-04-25T03:20:54.714Z,17.02
2019-04-25T03:21:32.036Z,16.23
2019-04-25T03:22:11.730Z,18.05
2019-04-25T03:22:47.529Z,17.02
2019-04-25T03:23:35.456Z,17.80
2019-04-25T03:24:16.373Z,17.77
2019-04-25T03:24:50.256Z,17.42
2019-04-25T03:25:26.289Z,17.60
2019-04-25T03:26:04.543Z,17.62
2019-04-25T03:26:40.803Z,17.00
2019-04-25T03:27:16.968Z,16.37
2019-04-25T03:27:54.113Z,17.65
2019-04-25T03:28:30.803Z,17.67
2019-04-25T03:29:07.294Z,17.92
2019-04-25T03:29:45.502Z,17.12
2019-04-25T03:30:22.057Z,16.48
2019-04-25T03:31:01.395Z,16.12
2019-04-25T03:31:36.003Z,16.60
2019-04-25T03:32:16.459Z,16.82
2019-04-25T03:32:51.622Z,16.80
2019-04-25T03:33:27.565Z,16.52
2019-04-25T03:34:07.939Z,16.60
2019-04-25T03:34:41.342Z,16.73
2019-04-25T03:35:17.360Z,15.93
2019-04-25T03:35:54.780Z,16.07
2019-04-25T03:36:30.820Z,17.77
2019-04-25T03:37:07.665Z,16.05
2019-04-25T03:37:43.765Z,17.80
2019-04-25T03:38:19.767Z,16.40
2019-04-25T03:38:55.900Z,17.00
2019-04-25T03:39:33.501Z,16.73
2019-04-25T03:40:09.729Z,17.02
2019-04-25T03:40:45.745Z,16.27
2019-04-25T03:41:21.781Z,17.23
2019-04-25T03:41:58.798Z,17.82
2019-04-25T03:42:34.817Z,16.10
2019-04-25T03:43:10.822Z,18.45
2019-04-25T03:43:46.848Z,15.93
2019-04-25T03:44:23.713Z,16.32
2019-04-25T03:45:01.467Z,16.80
2019-04-25T03:45:37.638Z,16.42
2019-04-25T03:46:14.239Z,17.67
2019-04-25T03:46:50.392Z,16.73
2019-04-25T03:47:26.437Z,16.62
2019-04-25T03:48:03.874Z,18.62
2019-04-25T03:48:40.210Z,18.42
2019-04-25T03:49:16.236Z,18.07
2019-04-25T03:49:53.499Z,17.23
2019-04-25T03:50:30.872Z,18.37
2019-04-25T03:51:07.903Z,17.77
2019-04-25T03:51:44.128Z,17.67
2019-04-25T03:52:20.149Z,17.73
2019-04-25T03:52:56.188Z,17.12
2019-04-25T03:53:33.704Z,19.02
2019-04-25T03:54:10.599Z,18.20
2019-04-25T03:54:46.639Z,17.32
2019-04-25T03:55:24.078Z,17.10
2019-04-25T03:56:00.247Z,17.05
2019-04-25T03:56:36.274Z,17.52
2019-04-25T03:57:14.333Z,17.12
2019-04-25T03:57:51.309Z,16.10
2019-04-25T03:58:27.325Z,16.87
2019-04-25T03:59:05.859Z,16.32
2019-04-25T03:59:43.557Z,16.25
2019-04-25T04:00:19.806Z,16.75
2019-04-25T04:00:55.979Z,17.42
2019-04-25T04:01:32.005Z,17.05
2019-04-25T04:02:09.056Z,16.77
2019-04-25T04:02:45.148Z,17.10
2019-04-25T04:03:21.200Z,17.55
2019-04-25T04:03:57.245Z,16.48
2019-04-25T04:04:33.591Z,16.87
2019-04-25T04:05:09.676Z,16.45
2019-04-25T04:05:45.691Z,17.87
2019-04-25T04:06:21.801Z,26.75
2019-04-25T04:06:57.839Z,17.32
2019-04-25T04:07:33.873Z,17.12
2019-04-25T04:08:11.918Z,17.67
2019-04-25T04:08:47.955Z,17.42
2019-04-25T04:09:24.227Z,16.73
2019-04-25T04:10:00.325Z,17.00
2019-04-25T04:10:36.365Z,17.95
2019-04-25T04:11:14.146Z,16.97
2019-04-25T04:11:50.225Z,17.50
2019-04-25T04:12:26.259Z,17.45
2019-04-25T04:13:02.287Z,17.30
2019-04-25T04:13:38.321Z,17.60
2019-04-25T04:14:15.639Z,16.87
2019-04-25T04:14:53.630Z,17.65
2019-04-25T04:15:29.781Z,16.37
2019-04-25T04:16:06.524Z,18.00
2019-04-25T04:16:44.412Z,16.23
2019-04-25T04:17:40.466Z,16.77
2019-04-25T04:18:36.032Z,17.23
2019-04-25T04:19:13.121Z,16.62
2019-04-25T04:19:54.228Z,17.30
2019-04-25T04:20:40.664Z,17.15
2019-04-25T04:21:21.358Z,17.05
2019-04-25T04:22:53.331Z,16.80
2019-04-25T04:23:34.041Z,17.65
2019-04-25T04:24:14.985Z,15.95
2019-04-25T04:24:53.866Z,16.93
2019-04-25T04:25:29.972Z,16.45
2019-04-25T04:26:06.256Z,17.23
2019-04-25T04:26:43.121Z,16.20
2019-04-25T04:27:19.235Z,16.80
2019-04-25T04:27:55.333Z,16.57
2019-04-25T04:28:33.719Z,16.45
2019-04-25T04:29:10.107Z,16.85
2019-04-25T04:29:46.219Z,17.45
2019-04-25T04:30:22.219Z,16.80
2019-04-25T04:30:58.296Z,17.60
2019-04-25T04:31:34.341Z,18.02
2019-04-25T04:32:10.633Z,15.78
2019-04-25T04:32:46.688Z,17.30
2019-04-25T04:33:30.246Z,17.27
2019-04-25T04:34:00.502Z,16.73
2019-04-25T04:34:36.548Z,16.48
2019-04-25T04:35:14.761Z,17.67
2019-04-25T04:35:51.248Z,16.23
2019-04-25T04:36:27.283Z,16.02
2019-04-25T04:37:03.771Z,17.60
2019-04-25T04:37:39.876Z,17.12
2019-04-25T04:38:16.469Z,16.23
2019-04-25T04:38:54.205Z,16.42
2019-04-25T04:39:30.370Z,16.45
2019-04-25T04:40:07.932Z,16.85
2019-04-25T04:40:44.266Z,16.95
2019-04-25T04:41:20.287Z,16.60
2019-04-25T04:41:56.477Z,16.45
2019-04-25T04:42:33.709Z,16.35
2019-04-25T04:43:09.739Z,16.40
2019-04-25T04:43:45.797Z,18.25
2019-04-25T04:44:21.899Z,18.05
2019-04-25T04:44:57.927Z,17.73
2019-04-25T04:45:34.519Z,17.00
2019-04-25T04:46:10.602Z,17.52
2019-04-25T04:46:48.250Z,15.83
2019-04-25T04:47:24.282Z,17.23
2019-04-25T04:48:00.367Z,17.20
2019-04-25T04:48:36.395Z,15.90
2019-04-25T04:49:14.178Z,16.67
2019-04-25T04:49:50.206Z,15.83
2019-04-25T04:50:26.255Z,16.00
2019-04-25T04:51:03.402Z,16.32
2019-04-25T04:51:39.499Z,16.07
2019-04-25T04:52:15.866Z,17.73
2019-04-25T04:52:53.996Z,17.07
2019-04-25T04:53:30.182Z,17.42
2019-04-25T04:54:07.167Z,17.95
2019-04-25T04:54:43.931Z,15.85
2019-04-25T04:55:20.073Z,15.60
2019-04-25T04:55:56.168Z,15.90
2019-04-25T04:56:34.040Z,16.15
2019-04-25T04:57:25.717Z,16.70
2019-04-25T04:57:47.666Z,16.50
2019-04-25T04:58:25.122Z,15.80
2019-04-25T04:59:01.207Z,16.67
2019-04-25T04:59:37.239Z,16.45
2019-04-25T05:00:14.558Z,16.10
2019-04-25T05:00:51.118Z,17.00
2019-04-25T05:01:28.951Z,17.15
2019-04-25T05:02:14.628Z,16.62
2019-04-25T05:03:00.552Z,16.57
2019-04-25T05:03:38.210Z,16.57
2019-04-25T05:04:16.268Z,18.30
2019-04-25T05:05:06.593Z,19.57
2019-04-25T05:06:00.399Z,16.87
2019-04-25T05:06:41.014Z,16.65
2019-04-25T05:07:25.334Z,16.97
2019-04-25T05:08:09.006Z,16.67
2019-04-25T05:08:46.710Z,16.80
2019-04-25T05:09:24.354Z,15.72
2019-04-25T05:10:00.389Z,16.97
2019-04-25T05:10:36.443Z,16.07
2019-04-25T05:11:15.226Z,16.52
2019-04-25T05:11:50.251Z,16.27
2019-04-25T05:12:26.264Z,16.07
2019-04-25T05:13:02.314Z,16.57
2019-04-25T05:13:38.325Z,15.70
2019-04-25T05:14:15.351Z,15.75
2019-04-25T05:14:53.291Z,16.27
2019-04-25T05:15:29.689Z,16.73
2019-04-25T05:16:05.730Z,15.98
2019-04-25T05:16:43.236Z,16.10
2019-04-25T05:17:19.699Z,16.20
2019-04-25T05:17:55.753Z,16.20
2019-04-25T05:18:37.085Z,16.25
2019-04-25T05:19:09.489Z,16.30
2019-04-25T05:19:45.513Z,18.37
2019-04-25T05:20:22.204Z,17.25
2019-04-25T05:20:58.269Z,16.27
2019-04-25T05:21:34.300Z,16.70
2019-04-25T05:22:10.353Z,16.70
2019-04-25T05:22:46.372Z,16.57
2019-04-25T05:23:23.439Z,16.82
2019-04-25T05:24:01.124Z,17.25
2019-04-25T05:24:37.171Z,17.82
2019-04-25T05:25:15.291Z,16.80
2019-04-25T05:25:50.934Z,17.40
2019-04-25T05:26:27.047Z,16.32
2019-04-25T05:27:03.864Z,17.20
2019-04-25T05:27:56.778Z,17.57
2019-04-25T05:28:18.515Z,17.20
2019-04-25T05:28:55.296Z,17.00
2019-04-25T05:29:31.490Z,17.65
2019-04-25T05:30:09.614Z,17.90
2019-04-25T05:30:47.323Z,17.12
2019-04-25T05:31:27.462Z,15.93
2019-04-25T05:32:04.253Z,16.25
2019-04-25T05:32:40.462Z,16.93
2019-04-25T05:33:19.101Z,16.70
2019-04-25T05:33:54.250Z,16.73
2019-04-25T05:34:30.287Z,16.70
2019-04-25T05:35:06.791Z,15.28
2019-04-25T05:35:44.057Z,16.20
2019-04-25T05:36:21.823Z,15.70
2019-04-25T05:36:57.918Z,15.78
2019-04-25T05:37:33.969Z,16.55
2019-04-25T05:38:10.035Z,17.65
2019-04-25T05:38:46.061Z,16.07
2019-04-25T05:39:23.729Z,16.23
2019-04-25T05:39:59.829Z,16.57
2019-04-25T05:40:37.512Z,16.75
2019-04-25T05:41:18.215Z,15.78
2019-04-25T05:41:58.566Z,17.12
2019-04-25T05:42:51.317Z,15.93
2019-04-25T05:43:28.935Z,17.05
2019-04-25T05:44:05.249Z,16.65
2019-04-25T05:44:41.261Z,16.15
2019-04-25T05:45:19.843Z,15.45
2019-04-25T05:45:55.973Z,16.73
2019-04-25T05:46:32.012Z,15.28
2019-04-25T05:47:08.032Z,16.17
2019-04-25T05:47:44.336Z,16.02
2019-04-25T05:48:21.089Z,17.30
2019-04-25T05:48:57.276Z,15.98
2019-04-25T05:49:34.272Z,17.57
2019-04-25T05:50:10.377Z,16.27
2019-04-25T05:50:46.390Z,16.00
2019-04-25T05:51:23.953Z,16.75
2019-04-25T05:52:00.186Z,16.40
2019-04-25T05:52:36.341Z,16.95
2019-04-25T05:53:14.098Z,17.85
2019-04-25T05:53:51.175Z,17.25
2019-04-25T05:54:27.254Z,17.20
2019-04-25T05:55:03.981Z,18.02
2019-04-25T05:55:40.083Z,18.85
2019-04-25T05:56:16.516Z,20.30
2019-04-25T05:56:53.761Z,19.12
2019-04-25T05:57:29.847Z,17.67
2019-04-25T05:58:05.868Z,17.95
2019-04-25T05:58:43.862Z,16.62
2019-04-25T05:59:19.619Z,17.35
2019-04-25T05:59:55.716Z,16.75
2019-04-25T06:00:31.748Z,17.45
2019-04-25T06:01:07.806Z,17.40
2019-04-25T06:01:43.836Z,17.60
2019-04-25T06:02:19.858Z,17.12
2019-04-25T06:02:55.978Z,17.20
2019-04-25T06:03:33.822Z,17.50
2019-04-25T06:04:09.734Z,17.85
2019-04-25T06:04:45.769Z,16.85
2019-04-25T06:05:23.429Z,17.17
2019-04-25T06:05:59.608Z,17.85
2019-04-25T06:06:36.812Z,17.50
2019-04-25T06:07:14.479Z,18.23
2019-04-25T06:07:50.602Z,17.05
2019-04-25T06:08:28.273Z,17.73
2019-04-25T06:09:24.067Z,17.60
2019-04-25T06:10:18.104Z,17.70
2019-04-25T06:10:58.819Z,21.12
2019-04-25T06:12:28.407Z,18.17
2019-04-25T06:13:18.152Z,17.15
2019-04-25T06:14:05.608Z,18.50
2019-04-25T06:14:43.299Z,20.02
2019-04-25T06:15:21.680Z,20.57
2019-04-25T06:16:00.022Z,24.02
2019-04-25T06:16:37.483Z,23.95
2019-04-25T06:17:32.131Z,22.87
2019-04-25T06:18:16.215Z,25.72
2019-04-25T06:19:11.297Z,27.02
2019-04-25T06:19:43.436Z,29.23
2019-04-25T06:20:21.526Z,29.35
2019-04-25T06:20:57.914Z,26.15
2019-04-25T06:21:33.961Z,29.82
2019-04-25T06:22:18.439Z,31.33
2019-04-25T06:22:59.779Z,30.55
2019-04-25T06:23:54.416Z,30.12
2019-04-25T06:24:33.895Z,30.60
2019-04-25T06:25:13.768Z,27.10
2019-04-25T06:25:49.401Z,26.93
2019-04-25T06:26:34.127Z,30.45
2019-04-25T06:27:16.891Z,31.45
2019-04-25T06:27:59.220Z,34.50
2019-04-25T06:28:35.403Z,35.17
2019-04-25T06:29:11.422Z,32.03
2019-04-25T06:29:58.094Z,34.43
2019-04-25T06:30:28.366Z,35.25
2019-04-25T06:31:09.920Z,32.63
2019-04-25T06:31:43.803Z,35.85
2019-04-25T06:32:21.385Z,40.48
2019-04-25T06:32:57.491Z,43.15
2019-04-25T06:33:33.958Z,43.15
2019-04-25T06:34:10.116Z,42.45
2019-04-25T06:34:46.192Z,36.55
2019-04-25T06:35:24.489Z,39.08
2019-04-25T06:36:00.021Z,36.65
2019-04-25T06:36:36.060Z,37.08
2019-04-25T06:37:13.763Z,35.20
2019-04-25T06:37:49.893Z,35.92
2019-04-25T06:38:27.244Z,36.65
2019-04-25T06:39:04.164Z,35.85
2019-04-25T06:39:41.776Z,35.63
2019-04-25T06:40:17.890Z,35.33
2019-04-25T06:40:53.915Z,38.13
2019-04-25T06:41:29.926Z,38.00
2019-04-25T06:42:05.947Z,36.55
2019-04-25T06:42:43.422Z,36.93
2019-04-25T06:43:19.649Z,36.28
2019-04-25T06:43:57.301Z,38.30
2019-04-25T06:44:50.893Z,37.40
2019-04-25T06:45:28.916Z,30.27
2019-04-25T06:46:15.308Z,24.05
2019-04-25T06:46:53.529Z,24.12
2019-04-25T06:47:36.986Z,24.87
2019-04-25T06:48:25.014Z,26.50
2019-04-25T06:49:03.531Z,24.67
2019-04-25T06:49:41.290Z,25.35
2019-04-25T06:50:17.356Z,24.32
2019-04-25T06:50:53.786Z,28.70
2019-04-25T06:51:49.516Z,28.90
2019-04-25T06:52:29.475Z,31.17
2019-04-25T06:53:03.505Z,22.75
2019-04-25T06:53:41.278Z,19.23
2019-04-25T06:54:17.321Z,17.82
2019-04-25T06:54:53.367Z,18.75
2019-04-25T06:55:30.183Z,19.57
2019-04-25T06:56:06.426Z,18.87
2019-04-25T06:56:43.470Z,18.87
2019-04-25T06:57:19.645Z,19.67
2019-04-25T06:57:55.872Z,18.48
2019-04-25T06:58:32.234Z,18.40
2019-04-25T06:59:09.931Z,18.35
2019-04-25T06:59:45.961Z,17.25
2019-04-25T07:00:24.261Z,18.12
2019-04-25T07:01:01.059Z,18.40
2019-04-25T07:01:38.313Z,18.45
2019-04-25T07:02:14.767Z,17.90
2019-04-25T07:02:50.816Z,17.05
2019-04-25T07:03:27.131Z,16.55
2019-04-25T07:04:04.061Z,17.75
2019-04-25T07:04:41.196Z,17.30
2019-04-25T07:05:26.616Z,16.77
2019-04-25T07:05:55.291Z,17.85
2019-04-25T07:06:31.416Z,18.00
2019-04-25T07:07:12.382Z,19.10
2019-04-25T07:07:45.481Z,17.60
2019-04-25T07:08:25.428Z,18.25
2019-04-25T07:09:00.336Z,16.25
2019-04-25T07:09:36.685Z,17.25
2019-04-25T07:10:13.352Z,17.02
2019-04-25T07:10:49.484Z,16.75
2019-04-25T07:11:26.787Z,17.60
2019-04-25T07:12:03.555Z,17.40
2019-04-25T07:12:39.798Z,16.77
2019-04-25T07:13:15.832Z,17.30
2019-04-25T07:13:53.590Z,17.23
2019-04-25T07:14:29.764Z,16.30
2019-04-25T07:15:09.818Z,16.40
2019-04-25T07:15:45.987Z,16.37
2019-04-25T07:16:24.054Z,16.93
2019-04-25T07:16:59.720Z,16.90
2019-04-25T07:17:36.041Z,16.90
2019-04-25T07:18:13.958Z,16.37
2019-04-25T07:18:50.073Z,17.62
2019-04-25T07:19:27.091Z,16.70
2019-04-25T07:20:05.677Z,15.10
2019-04-25T07:20:43.211Z,16.05
2019-04-25T07:21:20.359Z,17.25
2019-04-25T07:21:56.482Z,17.15
2019-04-25T07:22:34.774Z,16.48
2019-04-25T07:23:10.310Z,16.70
2019-04-25T07:23:46.458Z,17.32
2019-04-25T07:24:23.763Z,16.77
2019-04-25T07:25:00.312Z,16.57
2019-04-25T07:25:38.044Z,16.97
2019-04-25T07:26:16.055Z,16.57
2019-04-25T07:27:10.127Z,15.83
2019-04-25T07:27:50.771Z,16.73
2019-04-25T07:29:14.927Z,16.42
2019-04-25T07:29:53.872Z,18.40
2019-04-25T07:30:49.914Z,17.32
2019-04-25T07:31:28.937Z,16.30
2019-04-25T07:32:24.343Z,16.02
2019-04-25T07:33:03.761Z,15.93
2019-04-25T07:33:44.630Z,16.40
2019-04-25T07:35:03.482Z,16.77
2019-04-25T07:35:40.733Z,17.42
2019-04-25T07:36:16.833Z,17.80
2019-04-25T07:36:53.472Z,16.20
2019-04-25T07:37:29.819Z,16.80
2019-04-25T07:38:05.963Z,16.95
2019-04-25T07:38:43.493Z,16.77
2019-04-25T07:39:20.641Z,16.30
2019-04-25T07:39:56.688Z,16.48
2019-04-25T07:40:34.036Z,16.57
2019-04-25T07:41:10.511Z,16.48
2019-04-25T07:41:46.628Z,15.90
2019-04-25T07:42:23.918Z,17.37
2019-04-25T07:43:00.192Z,17.30
2019-04-25T07:43:36.341Z,16.85
2019-04-25T07:44:12.480Z,16.40
2019-04-25T07:44:52.626Z,15.75
2019-04-25T07:45:27.022Z,16.05
2019-04-25T07:46:03.479Z,16.35
2019-04-25T07:46:40.138Z,15.83
2019-04-25T07:47:16.324Z,16.00
2019-04-25T07:47:54.048Z,15.58
2019-04-25T07:48:30.246Z,16.35
2019-04-25T07:49:06.274Z,16.87
2019-04-25T07:49:43.286Z,17.10
2019-04-25T07:50:19.369Z,16.32
2019-04-25T07:50:55.394Z,16.93
2019-04-25T07:51:32.880Z,17.27
2019-04-25T07:52:11.474Z,16.40
2019-04-25T07:52:46.997Z,17.17
2019-04-25T07:53:24.316Z,16.93
2019-04-25T07:54:00.921Z,17.05
2019-04-25T07:54:36.974Z,16.70
2019-04-25T07:55:13.742Z,15.83
2019-04-25T07:55:49.887Z,15.25
2019-04-25T07:56:25.976Z,16.12
2019-04-25T07:57:03.492Z,17.20
2019-04-25T07:57:39.785Z,17.90
2019-04-25T07:58:15.857Z,20.30
2019-04-25T07:58:53.187Z,18.00
2019-04-25T07:59:29.697Z,17.82
2019-04-25T08:00:13.754Z,18.05
2019-04-25T08:00:50.249Z,17.15
2019-04-25T08:01:26.881Z,16.65
2019-04-25T08:02:04.022Z,16.95
2019-04-25T08:02:40.048Z,15.93
2019-04-25T08:03:16.067Z,16.25
2019-04-25T08:03:53.644Z,15.85
2019-04-25T08:04:29.827Z,15.08
2019-04-25T08:05:08.181Z,15.78
2019-04-25T08:05:44.218Z,17.87
2019-04-25T08:06:22.120Z,18.55
2019-04-25T08:06:58.197Z,17.45
2019-04-25T08:07:37.838Z,15.90
2019-04-25T08:08:13.946Z,18.17
2019-04-25T08:08:50.043Z,17.25
2019-04-25T08:09:26.092Z,17.77
2019-04-25T08:10:02.171Z,17.57
2019-04-25T08:10:56.789Z,16.75
2019-04-25T08:11:34.131Z,17.25
2019-04-25T08:12:10.570Z,16.57
2019-04-25T08:12:47.453Z,16.32